Accueil
METAR-TAF:

METAR-TAF

Aéroports :

Frontone, Italie

latitude: 43-31N, longitude: 012-44E, altitude: 570 m

Observation

Le bulletin a été fait il y a 1 heure et 12 minutes, à 13:55 UTC
Vent 18 kt de sud
Température 11°C
Humidité 62%
Pression 999 hPa
Visibilité 10 km ou plus
Nuages épars à une hauteur de 2800 ft
Nuages fragmentés à une hauteur de 3300 ft

METAR: LIVF 051355Z 19018KT 9999 SCT028 BKN033 11/04 Q0999 RMK OVC MON CIME INC NC VAL NIL VIS MIN 9999

Heure: 16:07 (15:07 UTC)


TAF: absent

Observations et prévisions météorologiques de plus de 4000 aéroports (messages METAR et TAF).

Les stations disponibles sont représentées par des disques jaunes et rouges sur la carte.

Passer la souris dessus pour voir le nom de la station.

Cliquer dessus pour voir les observations et prévisions météorologiques.

Pour changer de carte: cliquez sur les boutons verts avec une croix noire pour zoomer, sur le bouton vert avec un tiret pour effectuer un zoom arrière, ou sur les flèches vertes pour les cartes adjacentes.


METAR-TAF: